Time;durP1;ratioP1;P1;durP2;ratioP2;P2;SDS_P1;SDS_P2;PMS_P1;PMS_P2;Temp;Humidity;BMP_temperature;BMP_pressure;BME280_temperature;BME280_humidity;BME280_pressure;Samples;Min_cycle;Max_cycle;Signal;HPM_P1;HPM_P2
2023/09/22 00:12:31;;;;;;;18.65;5.72;;;;;;;25.40;61.27;95908.06;6128010;23;20068;-26
2023/09/22 00:25:43;;;;;;;17.10;5.55;;;;;;;25.52;60.60;95891.91;6127719;23;20070;-26
2023/09/22 00:41:35;;;;;;;17.38;6.57;;;;;;;25.35;60.70;95869.31;6127244;23;20076;-26
2023/09/22 00:57:27;;;;;;;15.55;4.78;;;;;;;25.35;60.29;95861.72;6126355;23;20072;-26
2023/09/22 01:13:20;;;;;;;12.60;5.88;;;;;;;25.27;60.46;95877.56;6126660;23;20017;-26
2023/09/22 01:26:26;;;;;;;15.27;5.72;;;;;;;25.22;60.46;95858.97;6127283;23;20045;-26
2023/09/22 01:42:18;;;;;;;13.90;5.13;;;;;;;25.21;61.10;95843.63;6126657;23;20134;-26
2023/09/22 01:58:11;;;;;;;22.08;5.85;;;;;;;25.20;61.76;95824.75;6125335;23;20032;-26
2023/09/22 02:27:31;;;;;;;13.65;5.90;;;;;;;25.16;62.33;95802.13;6126489;23;20017;-26
2023/09/22 02:43:23;;;;;;;18.60;6.82;;;;;;;25.12;62.53;95826.69;6126283;23;20478;-26
2023/09/22 02:59:17;;;;;;;16.20;6.43;;;;;;;25.04;62.76;95832.16;6124964;23;20025;-26
2023/09/22 03:12:35;;;;;;;22.88;7.10;;;;;;;24.89;63.29;95823.59;6126268;23;20013;-26
2023/09/22 03:28:27;;;;;;;17.40;7.40;;;;;;;24.89;63.31;95816.03;6125396;23;20016;-26
2023/09/22 03:44:20;;;;;;;20.50;7.32;;;;;;;25.03;62.67;95844.53;6125828;23;20507;-26
2023/09/22 04:14:30;;;;;;;24.33;8.07;;;;;;;24.95;63.19;95818.72;6125661;23;20021;-26
2023/09/22 04:30:25;;;;;;;19.75;6.90;;;;;;;24.98;63.14;95835.03;6125149;23;20100;-26
2023/09/22 04:43:36;;;;;;;16.70;6.80;;;;;;;24.86;64.24;95844.09;6125627;23;20012;-26
2023/09/22 04:59:29;;;;;;;19.77;6.72;;;;;;;24.88;64.67;95841.53;6126326;23;20049;-26
2023/09/22 05:15:22;;;;;;;16.75;6.88;;;;;;;24.89;64.72;95832.69;6126880;23;20065;-25
2023/09/22 05:17:48;;;;;;;18.25;6.60;;;;;;;24.90;64.50;95827.88;6127775;23;19997;-26
2023/09/22 05:30:21;;;;;;;16.00;6.35;;;;;;;24.89;65.26;95840.25;6126907;23;20443;-26
2023/09/22 05:46:13;;;;;;;14.70;6.60;;;;;;;24.88;65.34;95838.75;6126841;23;20016;-26
2023/09/22 05:59:28;;;;;;;14.68;6.25;;;;;;;24.91;65.66;95857.09;6126666;23;20037;-26
2023/09/22 06:16:10;;;;;;;16.70;5.78;;;;;;;24.85;65.82;95859.25;6126664;23;20072;-26
2023/09/22 06:45:33;;;;;;;12.35;5.28;;;;;;;25.22;65.81;95880.47;6126402;23;20447;-26
2023/09/22 07:01:25;;;;;;;14.80;5.00;;;;;;;25.14;67.30;95912.91;6126059;23;20171;-26
2023/09/22 07:17:18;;;;;;;15.32;5.18;;;;;;;25.20;67.07;95921.88;6125827;23;20069;-26
2023/09/22 07:33:12;;;;;;;13.27;4.88;;;;;;;25.20;67.40;95944.06;6126224;23;20029;-26
2023/09/22 07:49:06;;;;;;;13.02;4.05;;;;;;;25.35;66.00;95958.13;6125709;23;20073;-26
2023/09/22 08:34:29;;;;;;;9.43;3.38;;;;;;;25.45;61.40;95986.97;6127220;23;20016;-26
2023/09/22 08:47:52;;;;;;;8.43;3.60;;;;;;;25.28;61.27;95998.38;6127228;23;20044;-26
2023/09/22 08:50:19;;;;;;;12.88;4.00;;;;;;;25.68;60.27;96003.91;6127180;23;20340;-26
2023/09/22 09:03:17;;;;;;;11.57;4.85;;;;;;;25.76;58.39;95988.09;6126246;23;20570;-26
2023/09/22 09:19:12;;;;;;;10.88;3.25;;;;;;;25.87;56.34;95993.38;6097919;23;20021;-25
2023/09/22 09:35:07;;;;;;;7.75;2.78;;;;;;;26.07;56.37;95978.06;6097785;23;20512;-26
2023/09/22 09:48:33;;;;;;;9.50;2.33;;;;;;;26.11;54.73;95965.28;6097524;23;20029;-26
2023/09/22 10:04:28;;;;;;;7.90;2.28;;;;;;;26.11;53.60;95962.50;6112918;23;20382;-26
2023/09/22 10:06:54;;;;;;;5.45;2.00;;;;;;;26.16;54.00;95960.16;6126550;23;20016;-26
2023/09/22 10:19:41;;;;;;;5.20;2.10;;;;;;;25.75;53.25;95948.44;6126347;23;20064;-26
2023/09/22 10:35:40;;;;;;;6.15;2.30;;;;;;;26.15;51.25;95944.75;6126089;23;20068;-25
2023/09/22 10:38:05;;;;;;;;;;;;;;;26.02;50.42;95946.31;6127205;23;20420;-25
2023/09/22 10:50:37;;;;;;;5.82;2.33;;;;;;;26.06;50.01;95932.84;6125962;23;20151;-26
2023/09/22 11:20:26;;;;;;;8.25;2.22;;;;;;;26.20;48.79;95946.69;6125773;23;20073;-26
2023/09/22 11:36:18;;;;;;;5.85;2.10;;;;;;;26.36;47.98;95931.63;6125738;23;20017;-26
2023/09/22 12:05:37;;;;;;;6.93;1.98;;;;;;;26.48;45.94;95927.28;6124537;23;20081;-26
2023/09/22 12:08:05;;;;;;;8.02;1.92;;;;;;;26.34;46.63;95920.31;6125781;23;20018;-26
2023/09/22 12:10:31;;;;;;;5.70;2.10;;;;;;;26.35;47.08;95919.00;6125860;23;20009;-27
2023/09/22 12:20:16;;;;;;;9.43;2.15;;;;;;;26.35;46.89;95916.22;6125951;23;20017;-27
2023/09/22 12:36:13;;;;;;;4.65;2.00;;;;;;;26.39;47.30;95930.53;6125593;23;20192;-27
2023/09/22 12:52:05;;;;;;;4.85;1.75;;;;;;;26.25;47.22;95948.56;6125704;23;20432;-27
2023/09/22 13:08:04;;;;;;;5.75;1.55;;;;;;;26.65;47.30;95968.56;6124742;23;20030;-27
2023/09/22 13:10:29;;;;;;;8.10;2.10;;;;;;;26.52;47.32;95958.28;6125913;23;20352;-27
2023/09/22 13:23:01;;;;;;;3.67;1.70;;;;;;;26.31;47.88;95985.34;6127447;23;20329;-27
2023/09/22 13:36:09;;;;;;;6.35;1.92;;;;;;;26.50;46.98;96004.59;6127012;23;20021;-27
2023/09/22 13:38:34;;;;;;;7.30;2.55;;;;;;;26.34;46.56;95998.13;6126565;23;20009;-27
2023/09/22 13:41:01;;;;;;;5.38;1.90;;;;;;;26.55;47.24;95998.91;6127379;23;20009;-28
2023/09/22 14:06:58;;;;;;;5.22;1.98;;;;;;;26.40;46.54;96032.13;6125348;23;20102;-27
2023/09/22 14:22:51;;;;;;;6.45;2.08;;;;;;;26.42;47.42;95974.69;6126624;23;20061;-28
2023/09/22 14:38:44;;;;;;;5.75;1.75;;;;;;;26.48;46.63;95982.88;6126101;23;20041;-27
2023/09/22 14:52:01;;;;;;;4.78;1.60;;;;;;;26.64;46.05;95958.72;6126472;23;20021;-28
2023/09/22 15:07:55;;;;;;;10.05;3.08;;;;;;;26.39;48.32;95961.13;6124746;23;20045;-28
2023/09/22 15:10:21;;;;;;;9.27;2.30;;;;;;;26.57;48.06;95970.56;6126101;23;20018;-28
2023/09/22 15:22:54;;;;;;;6.28;1.90;;;;;;;26.45;47.32;95943.03;6126038;23;20020;-27
2023/09/22 15:38:46;;;;;;;5.63;2.10;;;;;;;26.36;49.33;95965.00;6125714;23;20020;-27
2023/09/22 15:54:39;;;;;;;6.68;2.60;;;;;;;26.28;55.27;96011.44;6125667;23;20020;-27
2023/09/22 16:07:54;;;;;;;9.30;2.97;;;;;;;26.25;59.20;95973.56;6125712;23;20032;-29
2023/09/22 16:24:36;;;;;;;12.77;6.15;;;;;;;26.09;59.66;95951.19;6096678;23;20111;-27
2023/09/22 16:53:56;;;;;;;6.35;2.40;;;;;;;25.97;57.55;96027.75;6097941;23;20028;-29
2023/09/22 16:56:24;;;;;;;10.32;3.33;;;;;;;26.02;57.06;96070.59;6098564;23;20448;-27
2023/09/22 17:08:56;;;;;;;5.95;2.80;;;;;;;26.06;56.81;96052.34;6110225;23;20084;-28
2023/09/22 17:24:50;;;;;;;7.18;2.50;;;;;;;25.98;56.26;96059.81;6127252;23;20032;-28
2023/09/22 17:54:19;;;;;;;7.93;2.80;;;;;;;25.74;57.29;96021.19;6037708;23;20477;-28
2023/09/22 18:11:01;;;;;;;7.15;2.90;;;;;;;25.81;57.68;96087.22;6058488;23;20473;-28
2023/09/22 18:24:18;;;;;;;8.02;3.40;;;;;;;25.78;57.92;96079.94;6126466;23;20068;-28
2023/09/22 18:40:10;;;;;;;8.63;2.80;;;;;;;25.57;59.39;96124.28;6126775;23;20100;-29
2023/09/22 18:56:03;;;;;;;10.55;3.88;;;;;;;25.62;60.69;96067.91;6125968;23;20119;-29
2023/09/22 19:25:47;;;;;;;10.50;3.63;;;;;;;25.49;60.11;96072.69;6126294;23;20040;-27
2023/09/22 19:41:40;;;;;;;8.30;3.15;;;;;;;25.59;59.89;96065.44;6125629;23;20074;-27
2023/09/22 20:11:03;;;;;;;6.53;3.10;;;;;;;25.51;60.42;96081.22;6124501;23;20029;-26
2023/09/22 20:26:56;;;;;;;10.07;3.70;;;;;;;25.62;60.05;96081.78;6127879;23;20372;-26
2023/09/22 20:42:49;;;;;;;6.97;2.70;;;;;;;25.52;58.85;96080.69;6127128;23;20021;-27
2023/09/22 20:56:07;;;;;;;8.13;2.42;;;;;;;25.25;58.91;96037.56;6127501;23;20016;-27
2023/09/22 21:11:59;;;;;;;6.53;1.90;;;;;;;25.31;56.23;96005.66;6125771;23;20028;-27
2023/09/22 21:42:35;;;;;;;7.35;1.20;;;;;;;25.39;54.47;96050.91;6126842;23;20076;-28
2023/09/22 21:58:29;;;;;;;2.65;0.85;;;;;;;25.34;52.81;96031.59;6126668;23;20456;-28
2023/09/22 22:11:54;;;;;;;2.65;0.80;;;;;;;25.05;52.74;96034.16;6126929;23;20065;-26
2023/09/22 22:28:15;;;;;;;2.53;0.90;;;;;;;25.08;52.95;96068.41;6097530;23;20490;-28
2023/09/22 22:44:11;;;;;;;1.27;0.70;;;;;;;24.91;51.80;96057.56;6096490;23;20017;-27
2023/09/22 22:57:21;;;;;;;3.00;0.82;;;;;;;24.78;52.24;96087.28;6097273;23;20017;-27
2023/09/22 22:59:47;;;;;;;3.38;0.90;;;;;;;24.78;52.39;96088.03;6097016;23;20008;-27
2023/09/22 23:12:44;;;;;;;1.73;1.13;;;;;;;24.79;52.60;96077.69;6105615;23;20028;-27
2023/09/22 23:28:39;;;;;;;3.20;0.98;;;;;;;24.57;53.51;96060.16;6125902;23;20024;-26
2023/09/22 23:44:30;;;;;;;2.40;1.20;;;;;;;24.62;53.87;96056.53;6125938;23;20432;-27
